createdAt,value
2023-02-15T00:00:12.993Z,80.39
2023-02-15T00:01:36.312Z,80.53
2023-02-15T00:02:38.099Z,80.78
2023-02-15T00:03:39.678Z,80.24
2023-02-15T00:04:47.466Z,80.56
2023-02-15T00:05:49.115Z,80.40
2023-02-15T00:06:50.919Z,80.33
2023-02-15T00:07:52.487Z,80.58
2023-02-15T00:08:55.307Z,80.12
2023-02-15T00:09:56.938Z,80.66
2023-02-15T00:11:10.459Z,80.63
2023-02-15T00:12:12.382Z,80.65
2023-02-15T00:13:13.842Z,80.38
2023-02-15T00:14:21.635Z,80.43
2023-02-15T00:15:23.193Z,80.21
2023-02-15T00:16:24.792Z,80.30
2023-02-15T00:17:29.855Z,80.22
2023-02-15T00:18:31.568Z,80.47
2023-02-15T00:19:33.084Z,80.63
2023-02-15T00:20:35.511Z,80.41
2023-02-15T00:21:39.021Z,80.28
2023-02-15T00:22:40.810Z,80.24
2023-02-15T00:23:42.289Z,80.24
2023-02-15T00:24:43.827Z,80.11
2023-02-15T00:25:45.361Z,80.18
2023-02-15T00:26:48.281Z,80.31
2023-02-15T00:27:50.102Z,80.34
2023-02-15T00:28:52.266Z,80.35
2023-02-15T00:29:54.627Z,80.09
2023-02-15T00:31:09.932Z,80.09
2023-02-15T00:32:11.596Z,80.16
2023-02-15T00:33:13.223Z,80.01
2023-02-15T00:34:20.872Z,80.31
2023-02-15T00:35:22.353Z,80.36
2023-02-15T00:36:23.878Z,80.47
2023-02-15T00:37:25.600Z,80.36
2023-02-15T00:38:28.448Z,79.92
2023-02-15T00:39:30.753Z,79.86
2023-02-15T00:40:32.294Z,80.21
2023-02-15T00:41:34.320Z,80.22
2023-02-15T00:42:36.173Z,80.01
2023-02-15T00:43:38.023Z,80.25
2023-02-15T00:44:39.563Z,79.98
2023-02-15T00:45:41.031Z,80.00
2023-02-15T00:46:43.094Z,80.17
2023-02-15T00:47:44.827Z,80.24
2023-02-15T00:48:46.609Z,80.31
2023-02-15T00:49:48.231Z,80.25
2023-02-15T00:50:56.080Z,80.32
2023-02-15T00:51:57.659Z,80.05
2023-02-15T00:52:59.320Z,80.23
2023-02-15T00:54:01.472Z,80.53
2023-02-15T00:55:05.121Z,80.53
2023-02-15T00:56:06.851Z,80.28
2023-02-15T00:57:08.623Z,80.25
2023-02-15T00:58:12.214Z,80.27
2023-02-15T00:59:14.275Z,80.37
2023-02-15T01:00:16.088Z,80.25
2023-02-15T01:01:21.378Z,80.01
2023-02-15T01:02:23.210Z,80.44
2023-02-15T01:03:24.947Z,80.17
2023-02-15T01:04:26.660Z,80.27
2023-02-15T01:05:29.986Z,80.29
2023-02-15T01:06:31.620Z,80.05
2023-02-15T01:07:33.162Z,80.22
2023-02-15T01:08:34.932Z,80.44
2023-02-15T01:09:36.893Z,80.43
2023-02-15T01:10:38.947Z,80.11
2023-02-15T01:11:40.360Z,80.27
2023-02-15T01:12:42.028Z,80.30
2023-02-15T01:13:43.714Z,80.52
2023-02-15T01:14:45.590Z,80.24
2023-02-15T01:15:54.898Z,80.10
2023-02-15T01:16:56.435Z,80.42
2023-02-15T01:17:58.016Z,80.25
2023-02-15T01:18:59.897Z,80.01
2023-02-15T01:20:01.850Z,80.44
2023-02-15T01:21:23.106Z,80.22
2023-02-15T01:22:24.729Z,80.37
2023-02-15T01:23:26.555Z,80.31
2023-02-15T01:24:28.061Z,80.44
2023-02-15T01:25:29.892Z,80.32
2023-02-15T01:26:31.575Z,80.44
2023-02-15T01:27:33.835Z,80.53
2023-02-15T01:28:36.415Z,80.08
2023-02-15T01:29:38.142Z,80.24
2023-02-15T01:30:39.806Z,80.38
2023-02-15T01:31:41.393Z,80.01
2023-02-15T01:32:43.720Z,80.09
2023-02-15T01:33:46.775Z,80.25
2023-02-15T01:34:48.675Z,80.48
2023-02-15T01:35:56.707Z,80.22
2023-02-15T01:36:58.259Z,80.19
2023-02-15T01:37:59.793Z,80.05
2023-02-15T01:39:01.421Z,80.20
2023-02-15T01:40:05.880Z,80.27
2023-02-15T01:41:20.177Z,80.24
2023-02-15T01:42:24.036Z,80.22
2023-02-15T01:43:43.587Z,80.42
2023-02-15T01:45:03.458Z,80.55
2023-02-15T01:46:05.308Z,80.41
2023-02-15T01:47:10.911Z,80.46
2023-02-15T01:48:19.881Z,80.37
2023-02-15T01:49:26.773Z,80.76
2023-02-15T01:50:33.030Z,80.51
2023-02-15T01:51:38.528Z,80.45
2023-02-15T01:52:52.009Z,80.56
2023-02-15T01:54:08.915Z,80.33
2023-02-15T01:55:12.922Z,80.47
2023-02-15T01:56:29.949Z,80.25
2023-02-15T01:57:31.799Z,80.36
2023-02-15T01:58:35.792Z,80.42
2023-02-15T01:59:39.972Z,80.57
2023-02-15T02:00:42.588Z,80.90
2023-02-15T02:01:44.924Z,80.40
2023-02-15T02:02:51.031Z,80.41
2023-02-15T02:04:05.272Z,80.31
2023-02-15T02:05:07.473Z,80.51
2023-02-15T02:06:09.721Z,80.58
2023-02-15T02:07:14.921Z,80.22
2023-02-15T02:08:16.454Z,80.69
2023-02-15T02:09:18.241Z,80.34
2023-02-15T02:10:25.239Z,80.52
2023-02-15T02:11:26.807Z,80.58
2023-02-15T02:12:29.398Z,80.35
2023-02-15T02:13:31.075Z,80.20
2023-02-15T02:14:32.929Z,80.65
2023-02-15T02:15:56.723Z,80.53
2023-02-15T02:17:01.204Z,80.48
2023-02-15T02:18:10.228Z,80.83
2023-02-15T02:19:50.886Z,80.81
2023-02-15T02:21:28.576Z,80.94
2023-02-15T02:23:02.265Z,81.31
2023-02-15T02:24:14.887Z,80.93
2023-02-15T02:25:46.435Z,80.91
2023-02-15T02:27:17.610Z,81.37
2023-02-15T02:28:31.502Z,81.30
2023-02-15T02:29:52.853Z,81.44
2023-02-15T02:31:54.165Z,81.62
2023-02-15T02:33:04.810Z,81.87
2023-02-15T02:34:28.318Z,81.54
2023-02-15T02:35:54.869Z,81.65
2023-02-15T02:37:28.552Z,81.78
2023-02-15T02:38:58.211Z,81.63
2023-02-15T02:40:13.329Z,81.92
2023-02-15T02:41:41.820Z,81.85
2023-02-15T02:43:10.916Z,81.79
2023-02-15T02:44:22.471Z,81.29
2023-02-15T02:45:39.953Z,81.92
2023-02-15T02:46:58.929Z,81.55
2023-02-15T02:48:28.472Z,81.71
2023-02-15T02:49:38.858Z,81.70
2023-02-15T02:50:41.587Z,81.88
2023-02-15T02:51:43.846Z,82.17
2023-02-15T02:52:48.097Z,82.07
2023-02-15T02:53:53.756Z,82.05
2023-02-15T02:54:56.635Z,82.07
2023-02-15T02:56:20.669Z,82.08
2023-02-15T02:57:24.731Z,82.00
2023-02-15T02:58:46.552Z,82.05
2023-02-15T02:59:51.564Z,82.29
2023-02-15T03:00:58.052Z,82.10
2023-02-15T03:02:13.845Z,82.16
2023-02-15T03:03:36.965Z,81.88
2023-02-15T03:04:47.418Z,82.01
2023-02-15T03:05:59.584Z,82.34
2023-02-15T03:07:05.073Z,82.38
2023-02-15T03:08:10.249Z,82.42
2023-02-15T03:09:43.974Z,82.29
2023-02-15T03:10:49.394Z,82.48
2023-02-15T03:11:51.261Z,82.25
2023-02-15T03:12:53.663Z,82.53
2023-02-15T03:13:55.408Z,82.62
2023-02-15T03:15:04.816Z,82.41
2023-02-15T03:16:28.556Z,82.75
2023-02-15T03:17:33.277Z,82.41
2023-02-15T03:18:42.371Z,82.59
2023-02-15T03:19:46.079Z,82.81
2023-02-15T03:20:49.600Z,82.73
2023-02-15T03:22:04.090Z,82.85
2023-02-15T03:23:14.293Z,82.60
2023-02-15T03:24:32.371Z,82.62
2023-02-15T03:25:38.962Z,82.86
2023-02-15T03:26:45.853Z,82.86
2023-02-15T03:27:54.988Z,82.68
2023-02-15T03:28:59.181Z,82.95
2023-02-15T03:30:04.030Z,82.60
2023-02-15T03:31:08.927Z,82.81
2023-02-15T03:32:11.977Z,82.91
2023-02-15T03:33:15.342Z,82.98
2023-02-15T03:34:17.768Z,82.98
2023-02-15T03:35:26.261Z,82.96
2023-02-15T03:36:56.619Z,82.71
2023-02-15T03:38:01.375Z,82.88
2023-02-15T03:39:12.564Z,82.87
2023-02-15T03:40:41.739Z,83.02
2023-02-15T03:41:50.721Z,83.09
2023-02-15T03:43:03.658Z,83.26
2023-02-15T03:44:24.232Z,83.16
2023-02-15T03:45:31.194Z,83.33
2023-02-15T03:46:45.586Z,83.52
2023-02-15T03:47:51.081Z,83.05
2023-02-15T03:48:57.068Z,83.37
2023-02-15T03:50:25.145Z,83.46
2023-02-15T03:51:39.322Z,83.34
2023-02-15T03:52:40.991Z,83.45
2023-02-15T03:53:46.302Z,83.44
2023-02-15T03:54:49.757Z,83.26
2023-02-15T03:55:55.038Z,83.37
2023-02-15T03:57:18.082Z,83.66
2023-02-15T03:58:38.249Z,83.57
2023-02-15T03:59:58.249Z,83.68
2023-02-15T04:01:42.739Z,83.55
2023-02-15T04:03:03.344Z,83.23
2023-02-15T04:04:11.503Z,83.75
2023-02-15T04:05:13.314Z,83.38
2023-02-15T04:06:14.806Z,83.57
2023-02-15T04:07:16.423Z,83.58
2023-02-15T04:08:17.869Z,83.81
2023-02-15T04:09:38.088Z,83.51
2023-02-15T04:10:52.468Z,83.49
2023-02-15T04:11:53.987Z,83.55
2023-02-15T04:12:56.596Z,83.37
2023-02-15T04:13:58.115Z,83.55
2023-02-15T04:15:18.268Z,83.41
2023-02-15T04:16:19.958Z,83.62
2023-02-15T04:17:21.756Z,83.64
2023-02-15T04:18:42.040Z,83.47
2023-02-15T04:20:02.202Z,83.46
2023-02-15T04:21:22.138Z,83.52
2023-02-15T04:22:42.434Z,83.53
2023-02-15T04:24:02.272Z,83.50
2023-02-15T04:25:10.795Z,83.60
2023-02-15T04:26:12.293Z,83.67
2023-02-15T04:27:14.120Z,83.53
2023-02-15T04:28:16.768Z,83.68
2023-02-15T04:29:19.309Z,83.83
2023-02-15T04:30:23.518Z,84.11
2023-02-15T04:31:25.313Z,83.42
2023-02-15T04:32:27.818Z,83.69
2023-02-15T04:33:29.674Z,83.52
2023-02-15T04:34:31.197Z,83.48
2023-02-15T04:35:33.826Z,83.54
2023-02-15T04:36:35.340Z,83.70
2023-02-15T04:37:37.827Z,83.69
2023-02-15T04:38:39.613Z,83.71
2023-02-15T04:39:41.077Z,83.47
2023-02-15T04:40:42.558Z,83.70
2023-02-15T04:41:45.174Z,83.67
2023-02-15T04:42:49.836Z,83.81
2023-02-15T04:43:51.483Z,83.55
2023-02-15T04:44:53.968Z,83.55
2023-02-15T04:45:55.493Z,83.60
2023-02-15T04:46:57.117Z,83.77
2023-02-15T04:47:58.672Z,83.64
2023-02-15T04:49:00.502Z,83.44
2023-02-15T04:50:02.102Z,83.79
2023-02-15T04:51:07.387Z,83.60
2023-02-15T04:52:09.103Z,83.80
2023-02-15T04:53:11.212Z,83.91
2023-02-15T04:54:12.899Z,83.78
2023-02-15T04:55:14.646Z,83.90
2023-02-15T04:56:16.153Z,83.75
2023-02-15T04:57:17.691Z,83.79
2023-02-15T04:58:19.163Z,83.51
2023-02-15T04:59:20.874Z,83.94
2023-02-15T05:00:22.641Z,83.69
2023-02-15T05:01:24.539Z,83.68
2023-02-15T05:02:26.042Z,83.66
2023-02-15T05:03:27.565Z,83.70
2023-02-15T05:04:29.651Z,83.84
2023-02-15T05:05:31.396Z,83.57
2023-02-15T05:06:32.869Z,84.03
2023-02-15T05:07:34.357Z,83.83
2023-02-15T05:08:36.044Z,83.45
2023-02-15T05:09:37.828Z,83.59
2023-02-15T05:10:39.321Z,83.70
2023-02-15T05:11:41.482Z,83.70
2023-02-15T05:12:43.477Z,83.88
2023-02-15T05:13:45.029Z,83.82
2023-02-15T05:14:46.714Z,83.64
2023-02-15T05:15:49.421Z,83.74
2023-02-15T05:16:51.073Z,83.89
2023-02-15T05:17:52.585Z,83.91
2023-02-15T05:18:54.120Z,83.95
2023-02-15T05:19:55.822Z,83.65
2023-02-15T05:20:57.437Z,83.86
2023-02-15T05:21:59.156Z,84.15
2023-02-15T05:23:00.596Z,83.78
2023-02-15T05:24:22.066Z,83.73
2023-02-15T05:25:41.881Z,83.87
2023-02-15T05:27:01.852Z,84.02
2023-02-15T05:28:21.832Z,84.07
2023-02-15T05:29:23.365Z,83.99
2023-02-15T05:30:25.305Z,83.87
2023-02-15T05:31:27.192Z,83.50
2023-02-15T05:32:28.995Z,83.65
2023-02-15T05:33:31.482Z,83.95
2023-02-15T05:34:33.025Z,83.64
2023-02-15T05:35:35.484Z,83.83
2023-02-15T05:36:36.883Z,83.88
2023-02-15T05:37:38.333Z,83.57
2023-02-15T05:38:40.144Z,83.76
2023-02-15T05:39:41.804Z,83.49
2023-02-15T05:40:43.418Z,83.72
2023-02-15T05:41:45.008Z,83.75
2023-02-15T05:42:46.460Z,83.47
2023-02-15T05:43:48.442Z,83.57
2023-02-15T05:44:49.971Z,83.86
2023-02-15T05:45:53.804Z,83.45
2023-02-15T05:46:55.332Z,83.70
2023-02-15T05:47:58.494Z,83.19
2023-02-15T05:49:00.040Z,83.32
2023-02-15T05:50:01.639Z,83.68
2023-02-15T05:51:51.893Z,83.91
2023-02-15T05:52:53.594Z,83.80
2023-02-15T05:53:55.031Z,83.68
2023-02-15T05:54:56.627Z,83.45
2023-02-15T05:56:02.946Z,83.37
2023-02-15T05:57:04.859Z,83.41
2023-02-15T05:58:07.934Z,83.80
2023-02-15T05:59:09.405Z,83.47
2023-02-15T06:00:12.499Z,83.42
2023-02-15T06:01:17.425Z,83.42
2023-02-15T06:02:19.084Z,83.43
2023-02-15T06:03:22.374Z,83.80
2023-02-15T06:04:24.306Z,83.69
2023-02-15T06:05:25.836Z,83.61
2023-02-15T06:06:27.248Z,83.36
2023-02-15T06:07:28.908Z,83.48
2023-02-15T06:08:31.578Z,83.17
2023-02-15T06:09:33.053Z,83.67
2023-02-15T06:10:34.580Z,83.38
2023-02-15T06:11:36.173Z,83.58
2023-02-15T06:12:37.891Z,83.58
2023-02-15T06:13:39.650Z,83.43
2023-02-15T06:14:41.102Z,83.34
2023-02-15T06:15:42.563Z,83.71
2023-02-15T06:16:44.242Z,83.66
2023-02-15T06:17:46.098Z,83.62
2023-02-15T06:18:47.584Z,83.56
2023-02-15T06:19:49.075Z,83.49
2023-02-15T06:20:50.788Z,83.40
2023-02-15T06:21:52.412Z,83.76
2023-02-15T06:22:54.055Z,83.81
2023-02-15T06:23:55.699Z,83.75
2023-02-15T06:24:57.120Z,83.61
2023-02-15T06:25:58.645Z,83.68
2023-02-15T06:27:00.593Z,83.73
2023-02-15T06:28:02.531Z,83.74
2023-02-15T06:29:04.174Z,83.77
2023-02-15T06:30:06.555Z,83.63
2023-02-15T06:31:08.395Z,83.69
2023-02-15T06:32:10.280Z,83.41
2023-02-15T06:33:12.207Z,83.52
2023-02-15T06:34:13.916Z,83.47
2023-02-15T06:35:15.409Z,83.90
2023-02-15T06:36:16.968Z,83.57
2023-02-15T06:37:18.715Z,83.60
2023-02-15T06:38:20.759Z,83.70
2023-02-15T06:39:22.647Z,83.39
2023-02-15T06:40:24.201Z,83.75
2023-02-15T06:41:25.688Z,83.69
2023-02-15T06:42:27.432Z,83.60
2023-02-15T06:43:29.144Z,83.71
2023-02-15T06:44:30.625Z,83.66
2023-02-15T06:45:32.156Z,83.68
2023-02-15T06:46:33.749Z,83.33
2023-02-15T06:47:35.511Z,83.87
2023-02-15T06:48:37.495Z,83.56
2023-02-15T06:49:39.042Z,83.59
2023-02-15T06:50:40.600Z,83.85
2023-02-15T06:51:42.102Z,83.83
2023-02-15T06:52:43.756Z,83.56
2023-02-15T06:53:45.422Z,83.62
2023-02-15T06:54:46.906Z,83.65
2023-02-15T06:55:48.480Z,83.83
2023-02-15T06:56:50.248Z,83.54
2023-02-15T06:57:52.165Z,83.39
2023-02-15T06:58:53.961Z,83.67
2023-02-15T06:59:55.552Z,83.61
2023-02-15T07:00:57.057Z,83.58
2023-02-15T07:01:58.885Z,83.88
2023-02-15T07:03:01.253Z,83.76
2023-02-15T07:04:03.071Z,83.79
2023-02-15T07:05:05.438Z,83.84
2023-02-15T07:06:08.772Z,83.80
2023-02-15T07:07:11.660Z,83.84
2023-02-15T07:08:13.419Z,83.74
2023-02-15T07:09:15.214Z,84.01
2023-02-15T07:10:17.123Z,83.73
2023-02-15T07:11:37.038Z,83.66
2023-02-15T07:12:47.536Z,84.04
2023-02-15T07:13:49.437Z,83.94
2023-02-15T07:14:51.351Z,84.21
2023-02-15T07:15:52.925Z,83.95
2023-02-15T07:16:54.462Z,84.05
2023-02-15T07:17:58.314Z,83.77
2023-02-15T07:19:00.022Z,84.02
2023-02-15T07:20:04.777Z,84.07
2023-02-15T07:21:10.344Z,84.02
2023-02-15T07:22:11.869Z,83.91
2023-02-15T07:23:13.405Z,83.83
2023-02-15T07:24:15.166Z,83.93
2023-02-15T07:25:17.579Z,83.78
2023-02-15T07:26:19.043Z,83.98
2023-02-15T07:27:21.407Z,83.74
2023-02-15T07:28:22.928Z,83.89
2023-02-15T07:29:24.730Z,83.71
2023-02-15T07:30:27.099Z,84.10
2023-02-15T07:31:28.854Z,83.79
2023-02-15T07:32:32.098Z,83.71
2023-02-15T07:33:34.447Z,83.68
2023-02-15T07:34:36.186Z,83.93
2023-02-15T07:35:37.763Z,83.65
2023-02-15T07:36:39.310Z,83.51
2023-02-15T07:37:40.792Z,83.43
2023-02-15T07:38:43.388Z,83.48
2023-02-15T07:39:44.979Z,83.65
2023-02-15T07:40:46.752Z,83.68
2023-02-15T07:41:48.305Z,83.82
2023-02-15T07:42:54.002Z,83.83
2023-02-15T07:43:55.733Z,83.57
2023-02-15T07:44:57.433Z,83.83
2023-02-15T07:46:01.466Z,83.80
2023-02-15T07:47:03.412Z,83.45
2023-02-15T07:48:05.919Z,83.67
2023-02-15T07:49:08.389Z,83.67
2023-02-15T07:50:10.257Z,83.67
2023-02-15T07:51:12.730Z,83.52
2023-02-15T07:52:14.236Z,83.65
2023-02-15T07:53:15.714Z,83.63
2023-02-15T07:54:17.204Z,83.55
2023-02-15T07:55:19.460Z,83.78
2023-02-15T07:56:21.314Z,83.52
2023-02-15T07:57:22.861Z,83.89
2023-02-15T07:58:44.324Z,83.50
2023-02-15T07:59:45.950Z,83.59
2023-02-15T08:01:02.164Z,83.44
2023-02-15T08:02:09.738Z,83.51
2023-02-15T08:03:14.161Z,83.60
2023-02-15T08:04:16.586Z,83.52
2023-02-15T08:05:18.622Z,83.33
2023-02-15T08:06:22.309Z,83.84
2023-02-15T08:07:24.122Z,83.53
2023-02-15T08:08:32.872Z,83.58
2023-02-15T08:09:34.427Z,83.56
2023-02-15T08:10:55.134Z,83.61
2023-02-15T08:11:56.527Z,83.25
2023-02-15T08:12:58.111Z,83.64
2023-02-15T08:13:59.757Z,83.46
2023-02-15T08:15:01.358Z,83.53
2023-02-15T08:16:03.260Z,83.53
2023-02-15T08:17:05.363Z,83.63
2023-02-15T08:18:07.090Z,83.52
2023-02-15T08:19:30.331Z,83.75
2023-02-15T08:20:31.972Z,83.72
2023-02-15T08:21:34.882Z,83.67
2023-02-15T08:22:36.298Z,83.53
2023-02-15T08:23:37.917Z,83.44
2023-02-15T08:24:39.602Z,83.38
2023-02-15T08:25:41.124Z,83.51
2023-02-15T08:26:46.916Z,83.57
2023-02-15T08:27:49.829Z,83.30
2023-02-15T08:28:52.185Z,83.42
2023-02-15T08:29:53.656Z,83.36
2023-02-15T08:30:55.316Z,83.30
2023-02-15T08:32:02.174Z,83.56
2023-02-15T08:33:03.744Z,83.08
2023-02-15T08:34:06.092Z,83.09
2023-02-15T08:35:07.853Z,83.40
2023-02-15T08:36:13.004Z,83.26
2023-02-15T08:37:14.463Z,83.38
2023-02-15T08:38:15.913Z,83.36
2023-02-15T08:39:17.664Z,83.35
2023-02-15T08:40:19.298Z,83.22
2023-02-15T08:41:23.202Z,83.25
2023-02-15T08:42:24.663Z,83.30
2023-02-15T08:43:26.897Z,83.40
2023-02-15T08:44:28.714Z,83.26
2023-02-15T08:45:30.262Z,83.20
2023-02-15T08:46:34.769Z,83.35
2023-02-15T08:47:36.342Z,83.28
2023-02-15T08:48:38.361Z,83.18
2023-02-15T08:49:40.046Z,83.02
2023-02-15T08:50:41.540Z,82.97
2023-02-15T08:51:43.056Z,82.77
2023-02-15T08:52:44.812Z,82.96
2023-02-15T08:53:50.419Z,82.70
2023-02-15T08:54:52.356Z,82.67
2023-02-15T08:55:57.907Z,82.56
2023-02-15T08:56:59.976Z,83.09
2023-02-15T08:58:01.383Z,83.14
2023-02-15T08:59:04.547Z,83.35
2023-02-15T09:00:07.065Z,83.26
2023-02-15T09:01:10.223Z,83.22
2023-02-15T09:02:11.770Z,83.06
2023-02-15T09:03:13.225Z,83.13
2023-02-15T09:04:16.064Z,82.91
2023-02-15T09:05:17.894Z,82.88
2023-02-15T09:06:19.788Z,82.87
2023-02-15T09:07:21.282Z,82.69
2023-02-15T09:08:23.014Z,82.72
2023-02-15T09:09:24.657Z,82.59
2023-02-15T09:10:26.417Z,82.48
2023-02-15T09:11:30.375Z,82.69
2023-02-15T09:12:32.001Z,83.07
2023-02-15T09:13:34.356Z,82.78
2023-02-15T09:14:35.865Z,82.97
2023-02-15T09:15:37.510Z,82.80
2023-02-15T09:16:39.426Z,82.71
2023-02-15T09:17:40.940Z,82.53
2023-02-15T09:18:43.529Z,82.70
2023-02-15T09:19:45.419Z,82.71
2023-02-15T09:20:46.994Z,82.45
2023-02-15T09:21:48.945Z,82.78
2023-02-15T09:22:56.419Z,82.77
2023-02-15T09:24:01.400Z,82.70
2023-02-15T09:25:03.154Z,82.78
2023-02-15T09:26:07.413Z,83.01
2023-02-15T09:27:08.935Z,83.02
2023-02-15T09:28:11.867Z,83.09
2023-02-15T09:29:14.940Z,82.86
2023-02-15T09:30:16.704Z,82.77
2023-02-15T09:31:20.730Z,82.85
2023-02-15T09:32:22.461Z,82.60
2023-02-15T09:33:25.563Z,82.96
2023-02-15T09:34:27.063Z,82.87
2023-02-15T09:35:28.935Z,82.46
2023-02-15T09:36:35.837Z,82.61
2023-02-15T09:37:37.320Z,82.73
2023-02-15T09:38:38.885Z,82.64
2023-02-15T09:39:43.330Z,82.61
2023-02-15T09:41:03.197Z,81.80
2023-02-15T09:42:14.574Z,82.43
2023-02-15T09:43:40.936Z,82.30
2023-02-15T09:45:13.016Z,82.38
2023-02-15T09:46:47.286Z,82.35
2023-02-15T09:48:03.736Z,82.06
2023-02-15T09:49:20.276Z,82.11
2023-02-15T09:51:04.069Z,81.62
2023-02-15T09:52:20.771Z,81.38
2023-02-15T09:54:01.208Z,81.24
2023-02-15T09:55:19.314Z,80.57
2023-02-15T09:56:53.026Z,80.94
2023-02-15T09:58:38.631Z,80.83
2023-02-15T09:59:55.578Z,80.53
2023-02-15T10:01:06.431Z,79.99
2023-02-15T10:02:27.897Z,80.21
2023-02-15T10:03:48.106Z,80.22
2023-02-15T10:05:14.605Z,80.35
2023-02-15T10:06:34.550Z,80.10
2023-02-15T10:08:00.242Z,80.34
2023-02-15T10:09:39.217Z,80.14
2023-02-15T10:11:22.765Z,80.54
2023-02-15T10:12:55.581Z,80.46
2023-02-15T10:14:21.794Z,80.37
2023-02-15T10:15:52.800Z,80.29
2023-02-15T10:17:13.320Z,80.02
2023-02-15T10:18:26.804Z,79.40
2023-02-15T10:19:37.293Z,78.93
2023-02-15T10:20:53.495Z,78.95
2023-02-15T10:22:10.067Z,79.13
2023-02-15T10:23:36.424Z,78.55
2023-02-15T10:25:21.448Z,79.27
2023-02-15T10:26:46.238Z,79.57
2023-02-15T10:27:49.706Z,79.01
2023-02-15T10:28:55.674Z,79.19
2023-02-15T10:30:11.036Z,78.68
2023-02-15T10:31:23.688Z,78.83
2023-02-15T10:32:29.191Z,78.13
2023-02-15T10:33:42.156Z,78.10
2023-02-15T10:34:50.481Z,77.82
2023-02-15T10:36:06.661Z,78.03
2023-02-15T10:37:43.707Z,77.64
2023-02-15T10:38:52.478Z,77.76
2023-02-15T10:40:03.152Z,77.57
2023-02-15T10:41:07.434Z,77.96
2023-02-15T10:42:34.867Z,77.80
2023-02-15T10:43:54.722Z,77.99
2023-02-15T10:45:29.462Z,77.50
2023-02-15T10:46:59.691Z,77.49
2023-02-15T10:48:32.043Z,77.16
2023-02-15T10:50:00.178Z,77.14
2023-02-15T10:51:05.804Z,77.54
2023-02-15T10:52:13.428Z,77.55
2023-02-15T10:53:50.296Z,77.72
2023-02-15T10:55:05.153Z,77.13
2023-02-15T10:56:33.889Z,76.94
2023-02-15T10:57:44.417Z,76.87
2023-02-15T10:58:46.331Z,76.75
2023-02-15T11:00:02.769Z,77.00
2023-02-15T11:01:25.893Z,77.28
2023-02-15T11:02:34.678Z,77.07
2023-02-15T11:03:41.002Z,77.32
2023-02-15T11:05:02.853Z,77.32
2023-02-15T11:06:15.484Z,77.08
2023-02-15T11:07:24.873Z,76.99
2023-02-15T11:08:32.222Z,76.70
2023-02-15T11:09:41.168Z,76.65
2023-02-15T11:10:51.864Z,76.32
2023-02-15T11:11:57.560Z,75.70
2023-02-15T11:13:06.110Z,75.86
2023-02-15T11:14:18.270Z,76.19
2023-02-15T11:16:06.641Z,76.11
2023-02-15T11:17:35.009Z,75.95
2023-02-15T11:18:41.907Z,76.19
2023-02-15T11:19:58.469Z,75.94
2023-02-15T11:21:17.942Z,76.05
2023-02-15T11:22:20.026Z,76.02
2023-02-15T11:23:24.164Z,76.29
2023-02-15T11:24:28.827Z,76.26
2023-02-15T11:25:34.086Z,75.92
2023-02-15T11:26:46.825Z,75.91
2023-02-15T11:27:49.995Z,76.05
2023-02-15T11:28:57.824Z,75.81
2023-02-15T11:30:14.634Z,75.47
2023-02-15T11:31:25.982Z,74.84
2023-02-15T11:32:38.519Z,74.71
2023-02-15T11:33:45.142Z,75.21
2023-02-15T11:34:58.926Z,75.16
2023-02-15T11:36:08.488Z,75.27
2023-02-15T11:37:18.241Z,74.97
2023-02-15T11:38:24.555Z,75.16
2023-02-15T11:39:32.046Z,74.82
2023-02-15T11:40:39.928Z,74.50
2023-02-15T11:41:50.418Z,74.84
2023-02-15T11:42:54.170Z,74.77
2023-02-15T11:44:11.342Z,74.51
2023-02-15T11:45:32.510Z,74.86
2023-02-15T11:46:34.722Z,75.09
2023-02-15T11:47:36.435Z,74.64
2023-02-15T11:48:38.724Z,74.79
2023-02-15T11:49:40.307Z,74.66
2023-02-15T11:50:43.115Z,74.68
2023-02-15T11:51:44.663Z,74.80
2023-02-15T11:52:46.265Z,74.70
2023-02-15T11:53:49.070Z,74.57
2023-02-15T11:54:52.408Z,74.50
2023-02-15T11:55:55.289Z,74.22
2023-02-15T11:57:01.485Z,74.09
2023-02-15T11:58:30.000Z,73.53
2023-02-15T11:59:37.098Z,73.70
2023-02-15T12:00:44.210Z,73.95
2023-02-15T12:01:46.949Z,73.82
2023-02-15T12:02:52.949Z,73.57
2023-02-15T12:04:09.711Z,73.50
2023-02-15T12:05:19.522Z,73.41
2023-02-15T12:06:25.877Z,73.20
2023-02-15T12:08:01.053Z,73.23
2023-02-15T12:09:25.512Z,73.39
2023-02-15T12:10:36.700Z,73.86
2023-02-15T12:11:40.135Z,73.73
2023-02-15T12:12:42.008Z,73.60
2023-02-15T12:13:59.161Z,73.15
2023-02-15T12:15:04.656Z,72.95
2023-02-15T12:16:12.287Z,72.74
2023-02-15T12:17:16.361Z,73.01
2023-02-15T12:18:38.305Z,72.81
2023-02-15T12:19:43.923Z,72.84
2023-02-15T12:20:45.789Z,73.03
2023-02-15T12:21:51.411Z,72.83
2023-02-15T12:23:03.293Z,73.05
2023-02-15T12:24:19.415Z,72.79
2023-02-15T12:25:36.395Z,72.86
2023-02-15T12:26:38.514Z,72.63
2023-02-15T12:27:43.750Z,72.67
2023-02-15T12:28:51.862Z,72.50
2023-02-15T12:30:02.619Z,72.69
2023-02-15T12:31:18.315Z,72.64
2023-02-15T12:32:26.014Z,72.80
2023-02-15T12:33:45.978Z,72.61
2023-02-15T12:34:49.110Z,72.48
2023-02-15T12:36:17.420Z,72.40
2023-02-15T12:37:32.228Z,72.41
2023-02-15T12:38:34.620Z,71.98
2023-02-15T12:39:36.292Z,72.01
2023-02-15T12:40:38.714Z,72.08
2023-02-15T12:41:55.095Z,72.23
2023-02-15T12:42:57.993Z,72.50
2023-02-15T12:44:05.899Z,72.26
2023-02-15T12:45:30.862Z,72.25
2023-02-15T12:46:37.985Z,72.15
2023-02-15T12:47:39.702Z,72.08
2023-02-15T12:48:41.271Z,71.81
2023-02-15T12:49:48.069Z,71.44
2023-02-15T12:50:54.782Z,71.47
2023-02-15T12:52:22.364Z,71.77
2023-02-15T12:53:36.000Z,71.59
2023-02-15T12:54:42.275Z,71.65
2023-02-15T12:55:56.694Z,71.58
2023-02-15T12:56:59.421Z,71.45
2023-02-15T12:58:16.348Z,71.61
2023-02-15T12:59:23.255Z,71.60
2023-02-15T13:00:28.729Z,71.79
2023-02-15T13:01:33.038Z,71.65
2023-02-15T13:02:53.944Z,71.67
2023-02-15T13:04:03.534Z,71.74
2023-02-15T13:05:19.998Z,71.43
2023-02-15T13:06:21.753Z,70.70
2023-02-15T13:07:29.984Z,71.24
2023-02-15T13:08:34.935Z,71.21
2023-02-15T13:09:39.892Z,71.02
2023-02-15T13:11:02.830Z,70.96
2023-02-15T13:12:18.836Z,71.09
2023-02-15T13:13:24.695Z,71.15
2023-02-15T13:14:32.420Z,71.16
2023-02-15T13:15:40.337Z,71.01
2023-02-15T13:16:44.599Z,70.64
2023-02-15T13:17:48.662Z,70.82
2023-02-15T13:18:52.414Z,70.84
2023-02-15T13:19:57.023Z,70.80
2023-02-15T13:21:11.420Z,71.06
2023-02-15T13:22:28.777Z,70.99
2023-02-15T13:23:36.327Z,71.07
2023-02-15T13:24:46.384Z,70.83
2023-02-15T13:25:50.629Z,70.82
2023-02-15T13:27:12.901Z,70.67
2023-02-15T13:28:21.101Z,70.63
2023-02-15T13:29:32.152Z,70.43
2023-02-15T13:30:42.826Z,70.09
2023-02-15T13:31:44.745Z,70.13
2023-02-15T13:32:49.974Z,70.16
2023-02-15T13:33:55.475Z,70.11
2023-02-15T13:35:00.378Z,70.04
2023-02-15T13:36:25.508Z,70.25
2023-02-15T13:37:56.391Z,70.30
2023-02-15T13:39:16.720Z,70.10
2023-02-15T13:40:39.364Z,69.81
2023-02-15T13:41:50.785Z,69.82
2023-02-15T13:43:00.536Z,69.49
2023-02-15T13:44:32.654Z,69.17
2023-02-15T13:45:54.424Z,69.40
2023-02-15T13:47:03.927Z,69.72
2023-02-15T13:48:48.726Z,69.86
2023-02-15T13:50:04.350Z,69.99
2023-02-15T13:51:36.561Z,69.71
2023-02-15T13:52:55.715Z,69.24
2023-02-15T13:54:27.864Z,69.06
2023-02-15T13:55:52.576Z,69.14
2023-02-15T13:57:19.653Z,69.19
2023-02-15T13:58:42.853Z,68.92
2023-02-15T14:00:08.811Z,68.81
2023-02-15T14:01:28.661Z,68.79
2023-02-15T14:02:36.269Z,68.84
2023-02-15T14:04:02.862Z,68.94
2023-02-15T14:05:10.570Z,68.50
2023-02-15T14:06:35.330Z,68.29
2023-02-15T14:07:50.848Z,68.46
2023-02-15T14:09:11.043Z,67.47
2023-02-15T14:10:18.555Z,68.05
2023-02-15T14:11:27.100Z,67.69
2023-02-15T14:13:07.207Z,67.79
2023-02-15T14:14:21.339Z,67.82
2023-02-15T14:15:41.458Z,67.49
2023-02-15T14:17:14.369Z,67.73
2023-02-15T14:18:16.178Z,67.33
2023-02-15T14:19:24.044Z,67.49
2023-02-15T14:20:57.733Z,67.23
2023-02-15T14:22:24.007Z,67.10
2023-02-15T14:23:31.608Z,67.38
2023-02-15T14:24:46.662Z,67.60
2023-02-15T14:25:58.205Z,66.76
2023-02-15T14:27:24.420Z,67.56
2023-02-15T14:28:39.658Z,67.26
2023-02-15T14:30:04.840Z,67.33
2023-02-15T14:31:10.788Z,67.88
2023-02-15T14:32:20.980Z,67.83
2023-02-15T14:33:43.130Z,67.77
2023-02-15T14:34:50.465Z,68.00
2023-02-15T14:35:52.646Z,68.05
2023-02-15T14:36:56.168Z,67.68
2023-02-15T14:38:10.120Z,67.96